This is the latest recevied weather packets stored in our database for station/object HB9ZRH-10. If no packets are shown the sender has not sent any weather packets the latest 10 day(s).
| Time | Temp. | Humidity | Pressure | Rain* | Wind** | Luminosity | Snow |
|---|---|---|---|---|---|---|---|
| 1777835295 | 25° C | 38% | 1015.6 hPa | - | - | - | - |
| 1777834995 | 25° C | 39% | 1015.5 hPa | - | - | - | - |
| 1777834695 | 23.89° C | 40% | 1015.5 hPa | - | - | - | - |
| 1777834395 | 23.33° C | 40% | 1015.6 hPa | - | - | - | - |
| 1777834095 | 26.11° C | 38% | 1015.5 hPa | - | - | - | - |
| 1777833795 | 25° C | 39% | 1015.4 hPa | - | - | - | - |
| 1777833495 | 21.11° C | 43% | 1015.5 hPa | - | - | - | - |
| 1777833195 | 18.33° C | 44% | 1015.6 hPa | - | - | - | - |
| 1777832895 | 17.78° C | 44% | 1015.4 hPa | - | - | - | - |
| 1777832595 | 17.78° C | 44% | 1015.4 hPa | - | - | - | - |
| 1777832295 | 18.33° C | 43% | 1015.2 hPa | - | - | - | - |
| 1777831995 | 20.56° C | 41% | 1015.1 hPa | - | - | - | - |
| 1777831695 | 23.89° C | 39% | 1015.1 hPa | - | - | - | - |
| 1777831395 | 25° C | 38% | 1015 hPa | - | - | - | - |
| 1777831095 | 24.44° C | 39% | 1015.1 hPa | - | - | - | - |
| 1777830795 | 26.11° C | 38% | 1015 hPa | - | - | - | - |
| 1777830495 | 27.78° C | 37% | 1014.9 hPa | - | - | - | - |
| 1777830195 | 27.78° C | 37% | 1014.9 hPa | - | - | - | - |
| 1777829895 | 27.22° C | 37% | 1014.9 hPa | - | - | - | - |
| 1777829595 | 28.33° C | 37% | 1014.9 hPa | - | - | - | - |
| 1777829295 | 27.78° C | 38% | 1014.9 hPa | - | - | - | - |
| 1777828995 | 27.22° C | 38% | 1015 hPa | - | - | - | - |
| 1777828695 | 25° C | 40% | 1015 hPa | - | - | - | - |
| 1777828395 | 21.11° C | 43% | 1015.1 hPa | - | - | - | - |
| 1777828095 | 20° C | 44% | 1015.2 hPa | - | - | - | - |
* Rain since midnight (hover to see other rain measurements)
** Current wind speed in m/s (hover to see current wind gust speed)